createdAt,value
2017-10-30T00:01:05.532Z,3.65
2017-10-30T00:03:33.114Z,3.67
2017-10-30T00:06:00.688Z,3.56
2017-10-30T00:08:28.264Z,3.60
2017-10-30T00:10:55.826Z,3.60
2017-10-30T00:13:23.467Z,3.53
2017-10-30T00:15:51.024Z,3.60
2017-10-30T00:18:18.581Z,3.54
2017-10-30T00:20:46.176Z,3.59
2017-10-30T00:23:13.754Z,3.69
2017-10-30T00:25:41.357Z,3.73
2017-10-30T00:28:08.997Z,3.94
2017-10-30T00:30:36.556Z,3.97
2017-10-30T00:33:04.160Z,3.93
2017-10-30T00:35:31.788Z,3.96
2017-10-30T00:37:59.360Z,4.08
2017-10-30T00:40:26.923Z,4.02
2017-10-30T00:42:54.497Z,4.16
2017-10-30T00:45:22.073Z,4.10
2017-10-30T00:47:49.638Z,4.13
2017-10-30T00:50:17.191Z,4.17
2017-10-30T00:52:44.757Z,4.33
2017-10-30T00:55:12.350Z,4.28
2017-10-30T00:57:39.913Z,4.22
2017-10-30T01:00:07.524Z,4.18
2017-10-30T01:02:35.089Z,4.11
2017-10-30T01:05:02.665Z,4.10
2017-10-30T01:07:30.212Z,4.07
2017-10-30T01:09:57.778Z,4.12
2017-10-30T01:12:25.354Z,4.00
2017-10-30T01:14:53.021Z,3.83
2017-10-30T01:17:20.742Z,3.74
2017-10-30T01:19:48.366Z,3.81
2017-10-30T01:22:15.936Z,3.87
2017-10-30T01:24:43.568Z,3.76
2017-10-30T01:27:11.946Z,3.83
2017-10-30T01:29:39.582Z,3.82
2017-10-30T01:32:07.213Z,3.75
2017-10-30T01:34:34.814Z,3.69
2017-10-30T01:37:02.407Z,3.82
2017-10-30T01:39:29.972Z,3.84
2017-10-30T01:41:57.554Z,3.88
2017-10-30T01:44:25.142Z,3.67
2017-10-30T01:46:52.701Z,3.53
2017-10-30T01:49:20.275Z,3.78
2017-10-30T01:51:47.888Z,3.76
2017-10-30T01:54:15.455Z,3.68
2017-10-30T01:56:43.031Z,3.66
2017-10-30T01:59:10.858Z,3.77
2017-10-30T02:01:38.501Z,3.68
2017-10-30T02:04:06.183Z,3.64
2017-10-30T02:06:33.790Z,3.63
2017-10-30T02:09:01.343Z,3.63
2017-10-30T02:11:28.924Z,3.68
2017-10-30T02:13:56.502Z,3.73
2017-10-30T02:16:24.407Z,3.78
2017-10-30T02:18:51.974Z,3.78
2017-10-30T02:21:19.593Z,3.78
2017-10-30T02:23:47.417Z,3.76
2017-10-30T02:26:15.005Z,3.77
2017-10-30T02:28:42.636Z,3.72
2017-10-30T02:31:10.214Z,3.62
2017-10-30T02:33:37.787Z,3.61
2017-10-30T02:36:05.522Z,3.57
2017-10-30T02:38:33.137Z,3.55
2017-10-30T02:41:00.800Z,3.54
2017-10-30T02:43:28.382Z,3.43
2017-10-30T02:45:55.965Z,3.30
2017-10-30T02:48:23.607Z,3.24
2017-10-30T02:50:51.185Z,3.19
2017-10-30T02:53:18.768Z,3.17
2017-10-30T02:55:46.477Z,3.14
2017-10-30T02:58:14.161Z,3.15
2017-10-30T03:00:41.746Z,3.12
2017-10-30T03:03:09.670Z,3.31
2017-10-30T03:05:37.225Z,3.33
2017-10-30T03:08:04.791Z,3.16
2017-10-30T03:10:32.405Z,3.02
2017-10-30T03:13:00.008Z,3.08
2017-10-30T03:15:28.385Z,3.12
2017-10-30T03:17:55.975Z,3.17
2017-10-30T03:20:23.992Z,3.15
2017-10-30T03:22:51.966Z,3.19
2017-10-30T03:25:20.180Z,3.22
2017-10-30T03:27:49.384Z,3.16
2017-10-30T03:30:16.982Z,3.15
2017-10-30T03:32:44.609Z,3.21
2017-10-30T03:35:12.231Z,3.27
2017-10-30T03:37:41.417Z,3.28
2017-10-30T03:40:09.118Z,3.24
2017-10-30T03:42:38.573Z,3.18
2017-10-30T03:45:06.338Z,3.14
2017-10-30T03:47:33.991Z,3.21
2017-10-30T03:50:02.701Z,3.27
2017-10-30T03:52:30.435Z,3.33
2017-10-30T03:54:58.508Z,3.39
2017-10-30T03:57:26.960Z,3.41
2017-10-30T03:59:54.530Z,3.45
2017-10-30T04:02:22.220Z,3.59
2017-10-30T04:04:49.786Z,3.66
2017-10-30T04:07:17.370Z,3.84
2017-10-30T04:09:44.940Z,3.90
2017-10-30T04:12:12.531Z,3.95
2017-10-30T04:14:40.141Z,3.98
2017-10-30T04:17:17.713Z,4.02
2017-10-30T04:19:45.270Z,4.07
2017-10-30T04:22:12.829Z,4.07
2017-10-30T04:24:40.391Z,4.13
2017-10-30T04:27:08.366Z,4.16
2017-10-30T04:29:35.978Z,4.19
2017-10-30T04:32:03.543Z,4.24
2017-10-30T04:34:31.190Z,4.28
2017-10-30T04:36:58.747Z,4.29
2017-10-30T04:39:26.342Z,4.27
2017-10-30T04:41:53.940Z,4.24
2017-10-30T04:44:21.785Z,4.25
2017-10-30T04:46:49.350Z,4.27
2017-10-30T04:49:16.917Z,4.28
2017-10-30T04:51:44.493Z,4.21
2017-10-30T04:54:12.052Z,4.06
2017-10-30T04:56:39.649Z,3.85
2017-10-30T04:59:07.247Z,3.70
2017-10-30T05:01:34.834Z,3.45
2017-10-30T05:04:02.385Z,3.31
2017-10-30T05:06:29.921Z,3.20
2017-10-30T05:08:57.489Z,3.03
2017-10-30T05:11:25.049Z,2.96
2017-10-30T05:13:52.594Z,2.96
2017-10-30T05:16:21.038Z,2.95
2017-10-30T05:18:48.694Z,3.04
2017-10-30T05:21:16.991Z,2.93
2017-10-30T05:26:16.350Z,3.15
2017-10-30T05:28:43.927Z,3.21
2017-10-30T05:31:12.376Z,3.27
2017-10-30T05:33:40.008Z,3.33
2017-10-30T05:36:07.592Z,3.32
2017-10-30T05:38:35.155Z,3.25
2017-10-30T05:41:02.759Z,3.24
2017-10-30T05:43:30.323Z,3.27
2017-10-30T05:45:57.924Z,3.29
2017-10-30T05:48:25.466Z,3.28
2017-10-30T05:50:53.049Z,3.25
2017-10-30T05:53:20.644Z,3.13
2017-10-30T05:56:00.832Z,3.11
2017-10-30T05:58:28.402Z,3.04
2017-10-30T06:00:55.961Z,3.00
2017-10-30T06:03:23.918Z,2.95
2017-10-30T06:05:51.581Z,3.03
2017-10-30T06:08:19.392Z,3.24
2017-10-30T06:10:46.982Z,3.29
2017-10-30T06:13:14.700Z,3.26
2017-10-30T06:15:42.365Z,3.27
2017-10-30T06:18:10.127Z,3.29
2017-10-30T06:20:37.701Z,3.36
2017-10-30T06:23:05.398Z,3.41
2017-10-30T06:25:32.955Z,3.46
2017-10-30T06:28:00.550Z,3.50
2017-10-30T06:30:28.569Z,3.50
2017-10-30T06:32:56.131Z,3.49
2017-10-30T06:35:23.895Z,3.56
2017-10-30T06:37:51.460Z,3.59
2017-10-30T06:40:19.158Z,3.67
2017-10-30T06:42:46.727Z,3.73
2017-10-30T06:45:14.342Z,3.70
2017-10-30T06:47:42.124Z,3.69
2017-10-30T06:50:09.787Z,3.71
2017-10-30T06:52:37.415Z,3.70
2017-10-30T06:55:05.027Z,3.73
2017-10-30T06:57:37.543Z,3.86
2017-10-30T07:00:06.770Z,3.85
2017-10-30T07:02:35.566Z,3.91
2017-10-30T07:05:07.989Z,3.94
2017-10-30T07:10:25.963Z,3.99
2017-10-30T07:12:59.341Z,4.06
2017-10-30T07:15:27.080Z,4.16
2017-10-30T07:17:55.865Z,4.05
2017-10-30T07:20:23.482Z,4.06
2017-10-30T07:22:51.094Z,4.12
2017-10-30T07:25:18.723Z,4.00
2017-10-30T07:27:47.120Z,3.88
2017-10-30T07:30:15.242Z,3.90
2017-10-30T07:32:42.865Z,3.95
2017-10-30T07:35:10.821Z,3.97
2017-10-30T07:37:38.463Z,4.02
2017-10-30T07:40:06.045Z,4.07
2017-10-30T07:42:33.637Z,4.03
2017-10-30T07:45:01.302Z,4.08
2017-10-30T07:47:28.979Z,4.08
2017-10-30T07:49:56.564Z,4.12
2017-10-30T07:52:28.849Z,4.35
2017-10-30T07:54:56.454Z,4.55
2017-10-30T07:57:24.541Z,4.58
2017-10-30T07:59:52.171Z,4.60
2017-10-30T08:02:21.242Z,4.44
2017-10-30T08:04:48.851Z,4.40
2017-10-30T08:07:16.496Z,4.60
2017-10-30T08:09:44.076Z,4.71
2017-10-30T08:12:11.666Z,4.74
2017-10-30T08:14:39.303Z,4.88
2017-10-30T08:17:06.933Z,4.84
2017-10-30T08:19:34.580Z,4.76
2017-10-30T08:22:02.174Z,4.77
2017-10-30T08:24:29.762Z,4.82
2017-10-30T08:26:57.372Z,4.80
2017-10-30T08:29:25.110Z,4.91
2017-10-30T08:31:52.725Z,4.95
2017-10-30T08:34:21.055Z,5.08
2017-10-30T08:36:49.159Z,5.19
2017-10-30T08:39:17.049Z,5.28
2017-10-30T08:41:44.660Z,5.18
2017-10-30T08:44:12.256Z,5.09
2017-10-30T08:46:39.861Z,5.09
2017-10-30T08:49:07.674Z,5.09
2017-10-30T08:51:35.299Z,5.11
2017-10-30T08:54:03.014Z,5.04
2017-10-30T08:56:30.611Z,4.99
2017-10-30T08:58:58.215Z,4.94
2017-10-30T09:01:25.870Z,5.01
2017-10-30T09:03:53.458Z,5.05
2017-10-30T09:06:21.066Z,5.12
2017-10-30T09:08:49.054Z,5.26
2017-10-30T09:11:16.724Z,5.43
2017-10-30T09:13:44.402Z,5.43
2017-10-30T09:16:12.212Z,5.66
2017-10-30T09:18:39.828Z,5.76
2017-10-30T09:21:12.089Z,5.95
2017-10-30T09:23:39.753Z,5.98
2017-10-30T09:26:07.442Z,6.15
2017-10-30T09:28:37.940Z,6.21
2017-10-30T09:31:06.316Z,6.38
2017-10-30T09:33:34.000Z,6.30
2017-10-30T09:36:01.600Z,6.08
2017-10-30T09:38:29.198Z,5.75
2017-10-30T09:40:56.812Z,5.67
2017-10-30T09:43:24.613Z,5.57
2017-10-30T09:45:52.404Z,5.75
2017-10-30T09:48:20.338Z,5.33
2017-10-30T09:50:47.986Z,4.97
2017-10-30T09:53:15.613Z,4.57
2017-10-30T09:55:43.194Z,4.51
2017-10-30T09:58:10.840Z,4.71
2017-10-30T10:00:38.414Z,4.72
2017-10-30T10:03:06.134Z,4.80
2017-10-30T10:05:33.743Z,5.06
2017-10-30T10:08:01.380Z,5.20
2017-10-30T10:10:29.318Z,5.45
2017-10-30T10:12:56.902Z,5.52
2017-10-30T10:15:25.163Z,5.27
2017-10-30T10:17:52.746Z,5.12
2017-10-30T10:20:20.336Z,5.09
2017-10-30T10:22:48.017Z,5.17
2017-10-30T10:25:16.667Z,5.10
2017-10-30T10:27:44.319Z,5.01
2017-10-30T10:30:12.040Z,5.01
2017-10-30T10:32:39.657Z,5.20
2017-10-30T10:35:07.302Z,5.46
2017-10-30T10:37:35.942Z,5.75
2017-10-30T10:40:03.539Z,5.81
2017-10-30T10:42:31.123Z,5.93
2017-10-30T10:44:58.718Z,6.23
2017-10-30T10:47:26.906Z,6.14
2017-10-30T10:49:54.556Z,6.18
2017-10-30T10:52:23.212Z,6.14
2017-10-30T10:54:50.822Z,6.38
2017-10-30T10:57:18.883Z,6.46
2017-10-30T10:59:46.602Z,6.35
2017-10-30T11:02:14.252Z,6.28
2017-10-30T11:04:41.808Z,6.54
2017-10-30T11:07:09.787Z,6.56
2017-10-30T11:09:37.407Z,6.53
2017-10-30T11:12:05.030Z,6.36
2017-10-30T11:14:32.598Z,6.30
2017-10-30T11:17:00.191Z,6.50
2017-10-30T11:19:27.766Z,6.52
2017-10-30T11:21:55.374Z,6.27
2017-10-30T11:24:22.959Z,6.54
2017-10-30T11:26:50.550Z,6.67
2017-10-30T11:29:19.191Z,6.96
2017-10-30T11:31:46.773Z,6.69
2017-10-30T11:34:14.534Z,6.76
2017-10-30T11:36:42.090Z,6.97
2017-10-30T11:39:12.734Z,6.97
2017-10-30T11:41:40.990Z,7.14
2017-10-30T11:44:09.598Z,7.08
2017-10-30T11:46:37.169Z,7.26
2017-10-30T11:49:04.749Z,7.22
2017-10-30T11:51:32.308Z,7.02
2017-10-30T11:54:00.888Z,6.20
2017-10-30T11:56:29.364Z,5.99
2017-10-30T11:58:57.066Z,5.89
2017-10-30T12:01:24.650Z,5.74
2017-10-30T12:03:52.407Z,5.92
2017-10-30T12:06:19.999Z,5.95
2017-10-30T12:08:47.579Z,5.83
2017-10-30T12:11:16.318Z,5.76
2017-10-30T12:13:43.879Z,5.56
2017-10-30T12:16:11.534Z,5.23
2017-10-30T12:18:39.206Z,4.44
2017-10-30T12:21:06.979Z,4.12
2017-10-30T12:23:35.756Z,3.84
2017-10-30T12:26:03.435Z,3.87
2017-10-30T12:28:30.988Z,3.88
2017-10-30T12:30:58.554Z,3.97
2017-10-30T12:33:27.250Z,3.97
2017-10-30T12:35:54.986Z,3.94
2017-10-30T12:38:22.920Z,3.92
2017-10-30T12:40:50.545Z,3.82
2017-10-30T12:43:18.095Z,3.71
2017-10-30T12:45:45.669Z,3.69
2017-10-30T12:48:13.416Z,3.77
2017-10-30T12:50:40.966Z,3.81
2017-10-30T12:53:08.640Z,3.77
2017-10-30T12:55:37.193Z,3.76
2017-10-30T12:58:04.779Z,3.74
2017-10-30T13:00:32.349Z,3.82
2017-10-30T13:03:00.047Z,3.82
2017-10-30T13:05:27.609Z,3.68
2017-10-30T13:07:55.188Z,3.70
2017-10-30T13:10:22.806Z,3.90
2017-10-30T13:12:50.477Z,4.11
2017-10-30T13:15:18.118Z,4.09
2017-10-30T13:17:45.736Z,3.95
2017-10-30T13:20:13.604Z,4.06
2017-10-30T13:22:41.254Z,4.03
2017-10-30T13:25:09.047Z,4.02
2017-10-30T13:27:36.662Z,4.00
2017-10-30T13:30:04.291Z,4.03
2017-10-30T13:32:31.875Z,4.05
2017-10-30T13:34:59.533Z,4.15
2017-10-30T13:37:27.620Z,4.08
2017-10-30T13:39:55.192Z,4.92
2017-10-30T13:42:22.756Z,5.25
2017-10-30T13:44:50.339Z,5.80
2017-10-30T13:47:18.545Z,6.25
2017-10-30T13:49:46.187Z,6.39
2017-10-30T13:52:13.896Z,6.47
2017-10-30T13:54:41.462Z,6.54
2017-10-30T13:57:09.226Z,6.79
2017-10-30T13:59:36.830Z,6.92
2017-10-30T14:02:04.839Z,6.53
2017-10-30T14:04:32.497Z,6.44
2017-10-30T14:07:00.089Z,6.47
2017-10-30T14:09:28.580Z,6.63
2017-10-30T14:11:56.416Z,6.59
2017-10-30T14:14:24.124Z,6.55
2017-10-30T14:16:51.746Z,6.32
2017-10-30T14:19:19.462Z,6.35
2017-10-30T14:21:47.074Z,6.60
2017-10-30T14:24:14.699Z,6.88
2017-10-30T14:26:42.282Z,6.74
2017-10-30T14:29:10.350Z,6.84
2017-10-30T14:31:37.949Z,6.42
2017-10-30T14:34:05.550Z,6.41
2017-10-30T14:36:33.155Z,6.29
2017-10-30T14:39:00.757Z,5.93
2017-10-30T14:41:29.459Z,5.76
2017-10-30T14:43:57.107Z,5.52
2017-10-30T14:46:25.904Z,5.39
2017-10-30T14:48:53.514Z,5.18
2017-10-30T14:51:21.336Z,5.07
2017-10-30T14:53:49.784Z,4.98
2017-10-30T14:56:17.381Z,4.90
2017-10-30T14:58:44.968Z,4.83
2017-10-30T15:01:12.593Z,4.83
2017-10-30T15:03:40.176Z,4.81
2017-10-30T15:06:07.780Z,4.76
2017-10-30T15:08:35.413Z,4.72
2017-10-30T15:11:02.983Z,4.62
2017-10-30T15:13:33.700Z,4.53
2017-10-30T15:16:02.567Z,4.52
2017-10-30T15:18:30.313Z,4.54
2017-10-30T15:20:57.911Z,4.55
2017-10-30T15:23:27.216Z,4.47
2017-10-30T15:25:54.808Z,4.42
2017-10-30T15:28:22.450Z,4.35
2017-10-30T15:30:50.128Z,4.21
2017-10-30T15:33:17.738Z,4.27
2017-10-30T15:35:45.336Z,4.22
2017-10-30T15:38:12.958Z,4.27
2017-10-30T15:40:41.702Z,4.21
2017-10-30T15:43:09.573Z,4.21
2017-10-30T15:45:37.642Z,4.09
2017-10-30T15:48:05.331Z,4.00
2017-10-30T15:50:32.893Z,3.88
2017-10-30T15:53:02.264Z,3.79
2017-10-30T15:55:30.018Z,3.78
2017-10-30T15:57:58.882Z,3.76
2017-10-30T16:00:26.555Z,3.76
2017-10-30T16:02:54.194Z,3.83
2017-10-30T16:05:23.608Z,3.79
2017-10-30T16:07:51.280Z,3.85
2017-10-30T16:10:18.904Z,3.90
2017-10-30T16:12:46.612Z,3.75
2017-10-30T16:15:15.163Z,3.70
2017-10-30T16:17:42.814Z,3.71
2017-10-30T16:20:10.439Z,3.55
2017-10-30T16:22:38.156Z,3.58
2017-10-30T16:25:06.640Z,3.61
2017-10-30T16:27:34.226Z,3.53
2017-10-30T16:30:02.251Z,3.38
2017-10-30T16:32:30.259Z,3.17
2017-10-30T16:34:58.597Z,3.07
2017-10-30T16:37:27.458Z,2.96
2017-10-30T16:39:55.434Z,2.95
2017-10-30T16:42:23.587Z,2.83
2017-10-30T16:44:51.466Z,2.95
2017-10-30T16:47:19.530Z,2.93
2017-10-30T16:49:47.102Z,3.08
2017-10-30T16:52:15.020Z,3.08
2017-10-30T16:54:42.637Z,3.01
2017-10-30T16:57:12.215Z,3.02
2017-10-30T16:59:40.249Z,2.97
2017-10-30T17:02:08.688Z,2.87
2017-10-30T17:04:36.759Z,2.78
2017-10-30T17:07:04.556Z,2.77
2017-10-30T17:09:32.216Z,2.66
2017-10-30T17:12:00.254Z,2.68
2017-10-30T17:14:28.478Z,2.73
2017-10-30T17:16:56.130Z,2.71
2017-10-30T17:19:24.760Z,2.58
2017-10-30T17:21:52.519Z,2.59
2017-10-30T17:24:20.173Z,2.59
2017-10-30T17:26:47.792Z,2.57
2017-10-30T17:29:15.484Z,2.73
2017-10-30T17:31:43.111Z,2.77
2017-10-30T17:34:10.904Z,2.71
2017-10-30T17:36:38.478Z,2.61
2017-10-30T17:39:06.056Z,2.50
2017-10-30T17:41:33.626Z,2.44
2017-10-30T17:44:01.199Z,2.47
2017-10-30T17:46:28.804Z,2.48
2017-10-30T17:48:56.374Z,2.45
2017-10-30T17:51:23.969Z,2.44
2017-10-30T17:53:51.563Z,2.56
2017-10-30T17:56:19.200Z,2.64
2017-10-30T17:58:47.324Z,2.74
2017-10-30T18:01:15.488Z,2.72
2017-10-30T18:03:43.102Z,2.76
2017-10-30T18:06:10.999Z,2.76
2017-10-30T18:08:39.362Z,2.82
2017-10-30T18:11:07.176Z,2.82
2017-10-30T18:13:34.810Z,2.74
2017-10-30T18:16:02.372Z,2.66
2017-10-30T18:18:29.973Z,2.67
2017-10-30T18:20:57.601Z,2.71
2017-10-30T18:23:25.234Z,2.64
2017-10-30T18:25:52.827Z,2.65
2017-10-30T18:28:22.800Z,2.64
2017-10-30T18:30:50.975Z,2.66
2017-10-30T18:33:18.648Z,2.72
2017-10-30T18:35:46.306Z,2.71
2017-10-30T18:38:14.096Z,2.67
2017-10-30T18:40:42.706Z,2.69
2017-10-30T18:43:10.470Z,2.72
2017-10-30T18:45:38.093Z,2.68
2017-10-30T18:48:05.653Z,2.73
2017-10-30T18:50:33.275Z,2.80
2017-10-30T18:53:00.867Z,2.93
2017-10-30T18:55:28.458Z,2.90
2017-10-30T18:57:56.114Z,2.91
2017-10-30T19:00:23.765Z,2.95
2017-10-30T19:02:51.357Z,2.88
2017-10-30T19:05:19.491Z,2.84
2017-10-30T19:07:47.245Z,2.76
2017-10-30T19:10:14.845Z,2.67
2017-10-30T19:12:42.494Z,2.66
2017-10-30T19:15:10.949Z,2.63
2017-10-30T19:17:38.578Z,2.67
2017-10-30T19:20:06.193Z,2.79
2017-10-30T19:22:33.986Z,2.77
2017-10-30T19:25:01.574Z,2.70
2017-10-30T19:27:29.235Z,2.79
2017-10-30T19:29:56.949Z,2.84
2017-10-30T19:32:24.513Z,2.73
2017-10-30T19:35:02.996Z,2.67
2017-10-30T19:37:34.493Z,2.60
2017-10-30T19:40:02.318Z,2.66
2017-10-30T19:42:31.138Z,2.70
2017-10-30T19:44:58.798Z,2.61
2017-10-30T19:47:26.840Z,2.63
2017-10-30T19:49:55.253Z,2.60
2017-10-30T19:52:22.906Z,2.49
2017-10-30T19:54:50.502Z,2.62
2017-10-30T19:57:18.104Z,2.60
2017-10-30T19:59:45.674Z,2.49
2017-10-30T20:02:13.315Z,2.57
2017-10-30T20:04:40.986Z,2.54
2017-10-30T20:07:14.079Z,2.41
2017-10-30T20:12:32.591Z,2.46
2017-10-30T20:15:00.292Z,2.34
2017-10-30T20:17:27.907Z,2.32
2017-10-30T20:19:55.493Z,2.36
2017-10-30T20:22:23.111Z,2.49
2017-10-30T20:24:50.691Z,2.41
2017-10-30T20:27:18.303Z,2.35
2017-10-30T20:29:45.927Z,2.47
2017-10-30T20:32:13.526Z,2.35
2017-10-30T20:34:41.086Z,2.32
2017-10-30T20:37:08.763Z,2.14
2017-10-30T20:39:36.401Z,2.11
2017-10-30T20:42:03.988Z,2.03
2017-10-30T20:44:31.593Z,2.05
2017-10-30T20:46:59.170Z,2.15
2017-10-30T20:49:27.033Z,2.22
2017-10-30T20:51:54.645Z,2.26
2017-10-30T20:54:23.134Z,2.28
2017-10-30T20:56:50.733Z,2.24
2017-10-30T20:59:19.739Z,2.12
2017-10-30T21:01:47.353Z,2.07
2017-10-30T21:04:14.915Z,2.00
2017-10-30T21:06:42.498Z,1.89
2017-10-30T21:09:10.704Z,1.77
2017-10-30T21:11:38.462Z,1.72
2017-10-30T21:14:06.127Z,1.74
2017-10-30T21:16:33.692Z,1.72
2017-10-30T21:19:01.320Z,1.71
2017-10-30T21:21:30.540Z,1.75
2017-10-30T21:23:58.127Z,1.82
2017-10-30T21:26:25.990Z,1.93
2017-10-30T21:28:53.553Z,2.17
2017-10-30T21:31:21.220Z,2.30
2017-10-30T21:33:48.917Z,2.31
2017-10-30T21:36:16.624Z,2.34
2017-10-30T21:38:44.287Z,2.42
2017-10-30T21:41:12.316Z,2.41
2017-10-30T21:43:39.960Z,2.31
2017-10-30T21:46:07.549Z,2.22
2017-10-30T21:48:35.170Z,2.16
2017-10-30T21:51:02.741Z,2.26
2017-10-30T21:53:30.370Z,2.18
2017-10-30T21:55:57.937Z,2.30
2017-10-30T21:58:25.503Z,2.30
2017-10-30T22:00:53.096Z,2.39
2017-10-30T22:03:21.022Z,2.28
2017-10-30T22:05:48.645Z,2.16
2017-10-30T22:08:16.229Z,2.39
2017-10-30T22:10:43.856Z,2.36
2017-10-30T22:13:11.840Z,2.37
2017-10-30T22:15:39.403Z,2.33
2017-10-30T22:18:09.794Z,2.16
2017-10-30T22:20:37.337Z,2.13
2017-10-30T22:23:04.951Z,2.09
2017-10-30T22:25:32.531Z,2.06
2017-10-30T22:28:00.122Z,2.11
2017-10-30T22:30:27.678Z,2.19
2017-10-30T22:32:55.408Z,2.13
2017-10-30T22:35:23.401Z,2.28
2017-10-30T22:37:50.974Z,2.35
2017-10-30T22:40:18.568Z,2.28
2017-10-30T22:42:46.130Z,2.28
2017-10-30T22:45:13.747Z,2.29
2017-10-30T22:47:41.461Z,2.29
2017-10-30T22:50:09.051Z,2.26
2017-10-30T22:52:36.668Z,2.25
2017-10-30T22:55:04.249Z,2.51
2017-10-30T22:57:31.797Z,2.51
2017-10-30T22:59:59.348Z,2.44
2017-10-30T23:02:26.947Z,2.38
2017-10-30T23:04:54.496Z,2.43
2017-10-30T23:07:25.771Z,2.38
2017-10-30T23:09:53.376Z,2.43
2017-10-30T23:12:22.492Z,2.39
2017-10-30T23:14:50.039Z,2.32
2017-10-30T23:17:18.634Z,2.19
2017-10-30T23:19:46.385Z,2.33
2017-10-30T23:22:14.006Z,2.31
2017-10-30T23:24:41.594Z,2.31
2017-10-30T23:27:09.155Z,2.38
2017-10-30T23:29:36.801Z,2.30
2017-10-30T23:32:04.393Z,2.26
2017-10-30T23:34:31.929Z,2.33
2017-10-30T23:37:00.490Z,2.24
2017-10-30T23:39:28.269Z,2.25
2017-10-30T23:41:55.859Z,2.22
2017-10-30T23:44:23.413Z,2.12
2017-10-30T23:46:50.985Z,2.15
2017-10-30T23:49:18.571Z,2.16
2017-10-30T23:51:46.857Z,2.10
2017-10-30T23:54:24.397Z,2.03
2017-10-30T23:56:51.978Z,1.97
2017-10-30T23:59:19.557Z,1.99
